sensor_id;sensor_type;location;lat;lon;timestamp;P1;durP1;ratioP1;P2;durP2;ratioP2
29092;SDS011;16167;48.768;14.984;2022-11-15T00:01:12;87.15;;;39.15;;
29092;SDS011;16167;48.768;14.984;2022-11-15T00:03:44;68.38;;;38.17;;
29092;SDS011;16167;48.768;14.984;2022-11-15T00:06:12;67.90;;;36.75;;
29092;SDS011;16167;48.768;14.984;2022-11-15T00:08:40;83.75;;;39.03;;
29092;SDS011;16167;48.768;14.984;2022-11-15T00:11:09;78.07;;;39.58;;
29092;SDS011;16167;48.768;14.984;2022-11-15T00:13:38;75.32;;;39.00;;
29092;SDS011;16167;48.768;14.984;2022-11-15T00:16:08;70.68;;;38.22;;
29092;SDS011;16167;48.768;14.984;2022-11-15T00:18:37;72.10;;;36.58;;
29092;SDS011;16167;48.768;14.984;2022-11-15T00:21:06;67.93;;;36.77;;
29092;SDS011;16167;48.768;14.984;2022-11-15T00:23:37;76.10;;;36.08;;
29092;SDS011;16167;48.768;14.984;2022-11-15T00:26:05;67.18;;;35.65;;
29092;SDS011;16167;48.768;14.984;2022-11-15T00:28:33;84.93;;;38.33;;
29092;SDS011;16167;48.768;14.984;2022-11-15T00:31:01;65.63;;;36.10;;
29092;SDS011;16167;48.768;14.984;2022-11-15T00:33:32;77.82;;;37.10;;
29092;SDS011;16167;48.768;14.984;2022-11-15T00:36:00;69.10;;;34.78;;
29092;SDS011;16167;48.768;14.984;2022-11-15T00:38:30;63.42;;;34.83;;
29092;SDS011;16167;48.768;14.984;2022-11-15T00:41:00;64.72;;;35.28;;
29092;SDS011;16167;48.768;14.984;2022-11-15T00:43:34;81.10;;;37.75;;
29092;SDS011;16167;48.768;14.984;2022-11-15T00:46:02;75.63;;;36.67;;
29092;SDS011;16167;48.768;14.984;2022-11-15T00:48:32;75.85;;;37.47;;
29092;SDS011;16167;48.768;14.984;2022-11-15T00:51:00;80.93;;;37.67;;
29092;SDS011;16167;48.768;14.984;2022-11-15T00:53:28;91.30;;;35.95;;
29092;SDS011;16167;48.768;14.984;2022-11-15T00:55:57;64.10;;;33.73;;
29092;SDS011;16167;48.768;14.984;2022-11-15T00:58:25;86.68;;;37.28;;
29092;SDS011;16167;48.768;14.984;2022-11-15T01:00:53;76.68;;;35.67;;
29092;SDS011;16167;48.768;14.984;2022-11-15T01:03:21;71.18;;;33.92;;
29092;SDS011;16167;48.768;14.984;2022-11-15T01:05:50;56.83;;;31.20;;
29092;SDS011;16167;48.768;14.984;2022-11-15T01:08:18;95.50;;;34.35;;
29092;SDS011;16167;48.768;14.984;2022-11-15T01:10:46;70.40;;;34.10;;
29092;SDS011;16167;48.768;14.984;2022-11-15T01:13:14;79.13;;;34.38;;
29092;SDS011;16167;48.768;14.984;2022-11-15T01:15:43;61.05;;;33.17;;
29092;SDS011;16167;48.768;14.984;2022-11-15T01:18:11;63.95;;;32.95;;
29092;SDS011;16167;48.768;14.984;2022-11-15T01:20:39;68.80;;;33.90;;
29092;SDS011;16167;48.768;14.984;2022-11-15T01:23:10;66.70;;;34.28;;
29092;SDS011;16167;48.768;14.984;2022-11-15T01:25:38;66.22;;;32.38;;
29092;SDS011;16167;48.768;14.984;2022-11-15T01:28:06;83.75;;;34.38;;
29092;SDS011;16167;48.768;14.984;2022-11-15T01:30:35;65.07;;;32.63;;
29092;SDS011;16167;48.768;14.984;2022-11-15T01:33:03;76.93;;;29.98;;
29092;SDS011;16167;48.768;14.984;2022-11-15T01:35:31;68.45;;;28.95;;
29092;SDS011;16167;48.768;14.984;2022-11-15T01:37:59;58.85;;;28.77;;
29092;SDS011;16167;48.768;14.984;2022-11-15T01:40:29;60.38;;;28.33;;
29092;SDS011;16167;48.768;14.984;2022-11-15T01:42:57;55.33;;;27.60;;
29092;SDS011;16167;48.768;14.984;2022-11-15T01:45:25;55.10;;;28.00;;
29092;SDS011;16167;48.768;14.984;2022-11-15T01:47:53;71.70;;;27.83;;
29092;SDS011;16167;48.768;14.984;2022-11-15T01:50:23;47.90;;;27.23;;
29092;SDS011;16167;48.768;14.984;2022-11-15T01:52:55;58.88;;;26.13;;
29092;SDS011;16167;48.768;14.984;2022-11-15T01:55:24;49.53;;;24.70;;
29092;SDS011;16167;48.768;14.984;2022-11-15T01:57:56;74.03;;;25.58;;
29092;SDS011;16167;48.768;14.984;2022-11-15T02:00:29;61.33;;;24.98;;
29092;SDS011;16167;48.768;14.984;2022-11-15T02:03:13;66.28;;;25.00;;
29092;SDS011;16167;48.768;14.984;2022-11-15T02:05:42;66.78;;;23.25;;
29092;SDS011;16167;48.768;14.984;2022-11-15T02:08:11;56.78;;;25.73;;
29092;SDS011;16167;48.768;14.984;2022-11-15T02:10:46;67.88;;;24.95;;
29092;SDS011;16167;48.768;14.984;2022-11-15T02:13:16;76.05;;;25.85;;
29092;SDS011;16167;48.768;14.984;2022-11-15T02:15:47;53.08;;;24.80;;
29092;SDS011;16167;48.768;14.984;2022-11-15T02:18:29;55.67;;;24.55;;
29092;SDS011;16167;48.768;14.984;2022-11-15T02:21:12;69.53;;;25.10;;
29092;SDS011;16167;48.768;14.984;2022-11-15T02:24:00;41.60;;;23.88;;
29092;SDS011;16167;48.768;14.984;2022-11-15T02:30:02;72.93;;;23.30;;
29092;SDS011;16167;48.768;14.984;2022-11-15T02:32:44;74.07;;;27.58;;
29092;SDS011;16167;48.768;14.984;2022-11-15T02:35:19;72.13;;;25.33;;
29092;SDS011;16167;48.768;14.984;2022-11-15T02:37:55;60.03;;;25.45;;
29092;SDS011;16167;48.768;14.984;2022-11-15T02:40:32;60.10;;;27.05;;
29092;SDS011;16167;48.768;14.984;2022-11-15T02:45:56;76.35;;;25.30;;
29092;SDS011;16167;48.768;14.984;2022-11-15T02:48:29;48.22;;;24.73;;
29092;SDS011;16167;48.768;14.984;2022-11-15T02:50:58;82.27;;;27.20;;
29092;SDS011;16167;48.768;14.984;2022-11-15T02:53:26;52.97;;;26.55;;
29092;SDS011;16167;48.768;14.984;2022-11-15T02:55:55;61.60;;;24.65;;
29092;SDS011;16167;48.768;14.984;2022-11-15T02:58:30;48.20;;;25.45;;
29092;SDS011;16167;48.768;14.984;2022-11-15T03:01:15;56.63;;;24.17;;
29092;SDS011;16167;48.768;14.984;2022-11-15T03:03:57;55.42;;;22.98;;
29092;SDS011;16167;48.768;14.984;2022-11-15T03:06:38;56.33;;;24.65;;
29092;SDS011;16167;48.768;14.984;2022-11-15T03:09:14;57.58;;;24.30;;
29092;SDS011;16167;48.768;14.984;2022-11-15T03:11:52;71.65;;;24.70;;
29092;SDS011;16167;48.768;14.984;2022-11-15T03:14:25;62.30;;;24.20;;
29092;SDS011;16167;48.768;14.984;2022-11-15T03:16:59;57.45;;;24.95;;
29092;SDS011;16167;48.768;14.984;2022-11-15T03:19:33;48.00;;;24.45;;
29092;SDS011;16167;48.768;14.984;2022-11-15T03:22:05;42.45;;;22.63;;
29092;SDS011;16167;48.768;14.984;2022-11-15T03:24:37;62.85;;;24.60;;
29092;SDS011;16167;48.768;14.984;2022-11-15T03:27:06;49.00;;;24.30;;
29092;SDS011;16167;48.768;14.984;2022-11-15T03:29:38;50.03;;;24.55;;
29092;SDS011;16167;48.768;14.984;2022-11-15T03:32:11;46.42;;;24.80;;
29092;SDS011;16167;48.768;14.984;2022-11-15T06:31:33;82.50;;;21.52;;
29092;SDS011;16167;48.768;14.984;2022-11-15T06:34:01;78.07;;;20.42;;
29092;SDS011;16167;48.768;14.984;2022-11-15T06:36:29;62.03;;;19.73;;
29092;SDS011;16167;48.768;14.984;2022-11-15T06:38:57;47.03;;;20.45;;
29092;SDS011;16167;48.768;14.984;2022-11-15T06:41:25;42.10;;;19.08;;
29092;SDS011;16167;48.768;14.984;2022-11-15T06:43:53;43.97;;;20.52;;
29092;SDS011;16167;48.768;14.984;2022-11-15T06:46:21;44.03;;;19.30;;
29092;SDS011;16167;48.768;14.984;2022-11-15T06:48:51;69.05;;;20.65;;
29092;SDS011;16167;48.768;14.984;2022-11-15T06:53:47;47.05;;;18.42;;
29092;SDS011;16167;48.768;14.984;2022-11-15T06:56:15;52.10;;;18.55;;
29092;SDS011;16167;48.768;14.984;2022-11-15T06:58:43;46.72;;;19.83;;
29092;SDS011;16167;48.768;14.984;2022-11-15T07:01:11;42.30;;;18.02;;
29092;SDS011;16167;48.768;14.984;2022-11-15T07:03:41;69.45;;;18.83;;
29092;SDS011;16167;48.768;14.984;2022-11-15T07:06:11;34.22;;;17.17;;
29092;SDS011;16167;48.768;14.984;2022-11-15T07:08:39;39.63;;;17.00;;
29092;SDS011;16167;48.768;14.984;2022-11-15T07:11:08;52.30;;;18.02;;
29092;SDS011;16167;48.768;14.984;2022-11-15T07:13:36;44.58;;;17.30;;
29092;SDS011;16167;48.768;14.984;2022-11-15T07:16:05;37.65;;;17.02;;
29092;SDS011;16167;48.768;14.984;2022-11-15T07:18:35;32.38;;;17.52;;
29092;SDS011;16167;48.768;14.984;2022-11-15T07:21:04;30.48;;;14.35;;
29092;SDS011;16167;48.768;14.984;2022-11-15T07:23:35;55.92;;;18.88;;
29092;SDS011;16167;48.768;14.984;2022-11-15T07:26:03;33.47;;;18.42;;
29092;SDS011;16167;48.768;14.984;2022-11-15T07:28:32;38.70;;;17.67;;
29092;SDS011;16167;48.768;14.984;2022-11-15T07:31:01;39.42;;;17.33;;
29092;SDS011;16167;48.768;14.984;2022-11-15T07:33:30;47.47;;;18.20;;
29092;SDS011;16167;48.768;14.984;2022-11-15T07:35:59;28.30;;;15.40;;
29092;SDS011;16167;48.768;14.984;2022-11-15T07:40:58;34.97;;;16.52;;
29092;SDS011;16167;48.768;14.984;2022-11-15T07:43:27;37.00;;;16.92;;
29092;SDS011;16167;48.768;14.984;2022-11-15T07:48:25;32.10;;;16.08;;
29092;SDS011;16167;48.768;14.984;2022-11-15T07:51:10;28.40;;;15.82;;
29092;SDS011;16167;48.768;14.984;2022-11-15T07:53:40;28.92;;;15.82;;
29092;SDS011;16167;48.768;14.984;2022-11-15T07:56:09;33.13;;;16.92;;
29092;SDS011;16167;48.768;14.984;2022-11-15T07:58:38;34.08;;;15.65;;
29092;SDS011;16167;48.768;14.984;2022-11-15T08:01:06;33.28;;;16.23;;
29092;SDS011;16167;48.768;14.984;2022-11-15T08:03:36;26.70;;;15.60;;
29092;SDS011;16167;48.768;14.984;2022-11-15T08:06:04;35.35;;;18.75;;
29092;SDS011;16167;48.768;14.984;2022-11-15T08:08:33;29.35;;;15.98;;
29092;SDS011;16167;48.768;14.984;2022-11-15T08:11:01;34.42;;;18.00;;
29092;SDS011;16167;48.768;14.984;2022-11-15T08:13:30;32.53;;;16.60;;
29092;SDS011;16167;48.768;14.984;2022-11-15T08:16:00;33.60;;;16.65;;
29092;SDS011;16167;48.768;14.984;2022-11-15T08:18:29;32.55;;;17.50;;
29092;SDS011;16167;48.768;14.984;2022-11-15T08:20:58;32.63;;;18.35;;
29092;SDS011;16167;48.768;14.984;2022-11-15T08:23:27;33.85;;;17.50;;
29092;SDS011;16167;48.768;14.984;2022-11-15T08:25:58;39.47;;;20.27;;
29092;SDS011;16167;48.768;14.984;2022-11-15T08:28:28;42.58;;;20.55;;
29092;SDS011;16167;48.768;14.984;2022-11-15T08:30:59;34.70;;;17.20;;
29092;SDS011;16167;48.768;14.984;2022-11-15T08:33:27;27.90;;;14.80;;
29092;SDS011;16167;48.768;14.984;2022-11-15T08:35:56;29.52;;;15.77;;
29092;SDS011;16167;48.768;14.984;2022-11-15T08:38:25;22.13;;;13.20;;
29092;SDS011;16167;48.768;14.984;2022-11-15T08:40:58;31.85;;;17.00;;
29092;SDS011;16167;48.768;14.984;2022-11-15T08:43:31;36.72;;;17.65;;
29092;SDS011;16167;48.768;14.984;2022-11-15T08:46:00;28.55;;;15.27;;
29092;SDS011;16167;48.768;14.984;2022-11-15T08:48:28;27.20;;;15.40;;
29092;SDS011;16167;48.768;14.984;2022-11-15T08:50:57;27.08;;;15.52;;
29092;SDS011;16167;48.768;14.984;2022-11-15T08:53:25;30.30;;;16.77;;
29092;SDS011;16167;48.768;14.984;2022-11-15T08:55:53;34.80;;;18.15;;
29092;SDS011;16167;48.768;14.984;2022-11-15T08:58:21;32.63;;;16.52;;
29092;SDS011;16167;48.768;14.984;2022-11-15T09:00:51;30.13;;;16.73;;
29092;SDS011;16167;48.768;14.984;2022-11-15T09:03:19;30.48;;;17.15;;
29092;SDS011;16167;48.768;14.984;2022-11-15T09:05:47;31.05;;;16.35;;
29092;SDS011;16167;48.768;14.984;2022-11-15T09:08:16;27.77;;;16.37;;
29092;SDS011;16167;48.768;14.984;2022-11-15T09:11:04;28.00;;;16.42;;
29092;SDS011;16167;48.768;14.984;2022-11-15T09:13:33;25.88;;;16.13;;
29092;SDS011;16167;48.768;14.984;2022-11-15T09:16:04;31.45;;;17.00;;
29092;SDS011;16167;48.768;14.984;2022-11-15T09:18:33;31.80;;;18.25;;
29092;SDS011;16167;48.768;14.984;2022-11-15T09:21:02;32.93;;;19.33;;
29092;SDS011;16167;48.768;14.984;2022-11-15T09:23:30;28.40;;;16.63;;
29092;SDS011;16167;48.768;14.984;2022-11-15T09:25:58;28.80;;;17.88;;
29092;SDS011;16167;48.768;14.984;2022-11-15T09:28:28;29.50;;;16.95;;
29092;SDS011;16167;48.768;14.984;2022-11-15T09:30:58;27.35;;;17.48;;
29092;SDS011;16167;48.768;14.984;2022-11-15T09:33:27;28.45;;;17.40;;
29092;SDS011;16167;48.768;14.984;2022-11-15T09:35:59;27.98;;;16.67;;
29092;SDS011;16167;48.768;14.984;2022-11-15T09:38:27;29.48;;;17.80;;
29092;SDS011;16167;48.768;14.984;2022-11-15T09:40:59;30.08;;;18.15;;
29092;SDS011;16167;48.768;14.984;2022-11-15T09:43:58;25.65;;;15.68;;
29092;SDS011;16167;48.768;14.984;2022-11-15T09:46:37;26.65;;;15.93;;
29092;SDS011;16167;48.768;14.984;2022-11-15T09:49:14;26.40;;;16.52;;
29092;SDS011;16167;48.768;14.984;2022-11-15T09:51:44;29.15;;;14.82;;
29092;SDS011;16167;48.768;14.984;2022-11-15T09:54:17;23.45;;;15.15;;
29092;SDS011;16167;48.768;14.984;2022-11-15T09:57:13;23.45;;;14.57;;
29092;SDS011;16167;48.768;14.984;2022-11-15T10:03:06;24.25;;;14.98;;
29092;SDS011;16167;48.768;14.984;2022-11-15T10:05:39;24.35;;;15.32;;
29092;SDS011;16167;48.768;14.984;2022-11-15T10:08:12;26.83;;;16.90;;
29092;SDS011;16167;48.768;14.984;2022-11-15T10:10:54;20.85;;;14.00;;
29092;SDS011;16167;48.768;14.984;2022-11-15T10:13:44;26.30;;;15.43;;
29092;SDS011;16167;48.768;14.984;2022-11-15T10:16:23;25.13;;;15.20;;
29092;SDS011;16167;48.768;14.984;2022-11-15T10:19:10;28.40;;;16.15;;
29092;SDS011;16167;48.768;14.984;2022-11-15T10:21:51;23.70;;;14.27;;
29092;SDS011;16167;48.768;14.984;2022-11-15T10:24:28;21.83;;;14.25;;
29092;SDS011;16167;48.768;14.984;2022-11-15T10:27:01;22.00;;;13.98;;
29092;SDS011;16167;48.768;14.984;2022-11-15T10:29:34;23.05;;;13.00;;
29092;SDS011;16167;48.768;14.984;2022-11-15T10:32:02;20.95;;;13.65;;
29092;SDS011;16167;48.768;14.984;2022-11-15T10:34:34;21.52;;;12.95;;
29092;SDS011;16167;48.768;14.984;2022-11-15T10:37:04;23.45;;;13.45;;
29092;SDS011;16167;48.768;14.984;2022-11-15T10:39:33;21.55;;;13.98;;
29092;SDS011;16167;48.768;14.984;2022-11-15T10:42:14;20.98;;;13.13;;
29092;SDS011;16167;48.768;14.984;2022-11-15T10:44:44;23.73;;;14.60;;
29092;SDS011;16167;48.768;14.984;2022-11-15T10:47:22;22.77;;;15.23;;
29092;SDS011;16167;48.768;14.984;2022-11-15T10:50:04;23.13;;;14.05;;
29092;SDS011;16167;48.768;14.984;2022-11-15T10:52:36;25.38;;;15.60;;
29092;SDS011;16167;48.768;14.984;2022-11-15T10:55:20;24.65;;;15.43;;
29092;SDS011;16167;48.768;14.984;2022-11-15T10:57:52;21.10;;;13.63;;
29092;SDS011;16167;48.768;14.984;2022-11-15T11:03:24;21.30;;;14.55;;
29092;SDS011;16167;48.768;14.984;2022-11-15T11:06:06;21.63;;;13.73;;
29092;SDS011;16167;48.768;14.984;2022-11-15T11:08:37;21.20;;;13.32;;
29092;SDS011;16167;48.768;14.984;2022-11-15T11:11:06;22.70;;;13.82;;
29092;SDS011;16167;48.768;14.984;2022-11-15T11:13:35;21.08;;;13.45;;
29092;SDS011;16167;48.768;14.984;2022-11-15T11:19:08;22.80;;;14.52;;
29092;SDS011;16167;48.768;14.984;2022-11-15T11:22:00;19.33;;;13.60;;
29092;SDS011;16167;48.768;14.984;2022-11-15T11:24:36;27.20;;;14.20;;
29092;SDS011;16167;48.768;14.984;2022-11-15T11:27:18;21.92;;;13.57;;
29092;SDS011;16167;48.768;14.984;2022-11-15T11:30:00;22.00;;;13.45;;
29092;SDS011;16167;48.768;14.984;2022-11-15T11:35:44;23.70;;;14.35;;
29092;SDS011;16167;48.768;14.984;2022-11-15T11:38:21;23.45;;;14.68;;
29092;SDS011;16167;48.768;14.984;2022-11-15T11:41:06;22.60;;;14.32;;
29092;SDS011;16167;48.768;14.984;2022-11-15T11:43:45;21.38;;;14.02;;
29092;SDS011;16167;48.768;14.984;2022-11-15T11:49:15;19.55;;;12.20;;
29092;SDS011;16167;48.768;14.984;2022-11-15T11:51:51;21.30;;;13.48;;
29092;SDS011;16167;48.768;14.984;2022-11-15T11:54:24;63.15;;;33.58;;
29092;SDS011;16167;48.768;14.984;2022-11-15T11:57:01;30.73;;;17.58;;
29092;SDS011;16167;48.768;14.984;2022-11-15T11:59:33;32.47;;;19.13;;
29092;SDS011;16167;48.768;14.984;2022-11-15T12:02:10;21.02;;;14.32;;
29092;SDS011;16167;48.768;14.984;2022-11-15T12:04:44;20.40;;;13.05;;
29092;SDS011;16167;48.768;14.984;2022-11-15T12:07:19;16.23;;;12.00;;
29092;SDS011;16167;48.768;14.984;2022-11-15T12:09:51;20.73;;;12.95;;
29092;SDS011;16167;48.768;14.984;2022-11-15T12:12:30;19.85;;;12.88;;
29092;SDS011;16167;48.768;14.984;2022-11-15T12:15:03;21.33;;;13.60;;
29092;SDS011;16167;48.768;14.984;2022-11-15T12:17:39;20.08;;;12.60;;
29092;SDS011;16167;48.768;14.984;2022-11-15T12:20:14;20.10;;;12.65;;
29092;SDS011;16167;48.768;14.984;2022-11-15T12:22:46;20.40;;;12.43;;
29092;SDS011;16167;48.768;14.984;2022-11-15T12:25:21;19.45;;;13.55;;
29092;SDS011;16167;48.768;14.984;2022-11-15T12:27:54;20.02;;;12.95;;
29092;SDS011;16167;48.768;14.984;2022-11-15T12:30:27;19.83;;;12.98;;
29092;SDS011;16167;48.768;14.984;2022-11-15T12:33:09;21.65;;;13.52;;
29092;SDS011;16167;48.768;14.984;2022-11-15T12:36:02;20.30;;;13.05;;
29092;SDS011;16167;48.768;14.984;2022-11-15T12:41:22;19.48;;;13.32;;
29092;SDS011;16167;48.768;14.984;2022-11-15T12:43:53;18.05;;;11.93;;
29092;SDS011;16167;48.768;14.984;2022-11-15T12:46:22;16.80;;;11.50;;
29092;SDS011;16167;48.768;14.984;2022-11-15T12:49:08;20.70;;;13.13;;
29092;SDS011;16167;48.768;14.984;2022-11-15T12:54:51;18.38;;;11.93;;
29092;SDS011;16167;48.768;14.984;2022-11-15T12:57:29;16.38;;;11.05;;
29092;SDS011;16167;48.768;14.984;2022-11-15T13:00:01;16.65;;;11.40;;
29092;SDS011;16167;48.768;14.984;2022-11-15T13:02:33;18.52;;;12.18;;
29092;SDS011;16167;48.768;14.984;2022-11-15T13:08:08;18.85;;;12.35;;
29092;SDS011;16167;48.768;14.984;2022-11-15T13:10:36;20.20;;;13.25;;
29092;SDS011;16167;48.768;14.984;2022-11-15T13:13:07;20.98;;;13.00;;
29092;SDS011;16167;48.768;14.984;2022-11-15T13:15:44;19.33;;;12.27;;
29092;SDS011;16167;48.768;14.984;2022-11-15T13:18:30;19.58;;;11.55;;
29092;SDS011;16167;48.768;14.984;2022-11-15T13:21:19;21.38;;;13.40;;
29092;SDS011;16167;48.768;14.984;2022-11-15T13:24:13;21.27;;;13.40;;
29092;SDS011;16167;48.768;14.984;2022-11-15T13:26:42;17.30;;;11.88;;
29092;SDS011;16167;48.768;14.984;2022-11-15T13:29:17;19.98;;;13.02;;
29092;SDS011;16167;48.768;14.984;2022-11-15T13:31:48;22.55;;;13.40;;
29092;SDS011;16167;48.768;14.984;2022-11-15T13:34:21;20.55;;;13.82;;
29092;SDS011;16167;48.768;14.984;2022-11-15T13:37:26;18.95;;;12.80;;
29092;SDS011;16167;48.768;14.984;2022-11-15T13:40:09;21.10;;;13.43;;
29092;SDS011;16167;48.768;14.984;2022-11-15T13:42:45;21.80;;;14.80;;
29092;SDS011;16167;48.768;14.984;2022-11-15T13:45:15;24.90;;;13.93;;
29092;SDS011;16167;48.768;14.984;2022-11-15T13:47:47;24.83;;;14.68;;
29092;SDS011;16167;48.768;14.984;2022-11-15T13:50:19;23.42;;;14.23;;
29092;SDS011;16167;48.768;14.984;2022-11-15T13:52:49;25.10;;;14.93;;
29092;SDS011;16167;48.768;14.984;2022-11-15T13:55:18;24.75;;;14.90;;
29092;SDS011;16167;48.768;14.984;2022-11-15T13:57:50;19.48;;;12.27;;
29092;SDS011;16167;48.768;14.984;2022-11-15T14:00:25;24.20;;;13.80;;
29092;SDS011;16167;48.768;14.984;2022-11-15T14:03:05;23.37;;;14.03;;
29092;SDS011;16167;48.768;14.984;2022-11-15T14:05:40;20.58;;;13.20;;
29092;SDS011;16167;48.768;14.984;2022-11-15T14:08:13;24.92;;;14.75;;
29092;SDS011;16167;48.768;14.984;2022-11-15T14:13:34;23.63;;;14.45;;
29092;SDS011;16167;48.768;14.984;2022-11-15T14:16:15;26.98;;;14.68;;
29092;SDS011;16167;48.768;14.984;2022-11-15T14:18:47;27.30;;;14.20;;
29092;SDS011;16167;48.768;14.984;2022-11-15T14:21:16;24.90;;;14.68;;
29092;SDS011;16167;48.768;14.984;2022-11-15T14:23:45;20.48;;;13.18;;
29092;SDS011;16167;48.768;14.984;2022-11-15T14:26:28;23.10;;;14.15;;
29092;SDS011;16167;48.768;14.984;2022-11-15T14:28:57;21.15;;;13.82;;
29092;SDS011;16167;48.768;14.984;2022-11-15T14:31:49;31.70;;;19.77;;
29092;SDS011;16167;48.768;14.984;2022-11-15T14:34:19;30.27;;;17.50;;
29092;SDS011;16167;48.768;14.984;2022-11-15T14:36:48;26.83;;;15.05;;
29092;SDS011;16167;48.768;14.984;2022-11-15T14:39:16;21.50;;;13.75;;
29092;SDS011;16167;48.768;14.984;2022-11-15T14:41:44;26.13;;;15.82;;
29092;SDS011;16167;48.768;14.984;2022-11-15T14:44:12;25.67;;;14.18;;
29092;SDS011;16167;48.768;14.984;2022-11-15T14:46:44;22.67;;;14.20;;
29092;SDS011;16167;48.768;14.984;2022-11-15T14:49:13;22.02;;;13.68;;
29092;SDS011;16167;48.768;14.984;2022-11-15T14:51:43;23.17;;;15.13;;
29092;SDS011;16167;48.768;14.984;2022-11-15T14:54:11;23.67;;;14.02;;
29092;SDS011;16167;48.768;14.984;2022-11-15T14:56:39;23.83;;;14.68;;
29092;SDS011;16167;48.768;14.984;2022-11-15T14:59:08;27.02;;;16.05;;
29092;SDS011;16167;48.768;14.984;2022-11-15T15:01:36;26.20;;;15.07;;
29092;SDS011;16167;48.768;14.984;2022-11-15T15:04:04;25.67;;;15.00;;
29092;SDS011;16167;48.768;14.984;2022-11-15T15:06:32;23.70;;;14.25;;
29092;SDS011;16167;48.768;14.984;2022-11-15T15:09:02;21.15;;;12.23;;
29092;SDS011;16167;48.768;14.984;2022-11-15T15:11:31;20.35;;;12.55;;
29092;SDS011;16167;48.768;14.984;2022-11-15T15:13:59;22.15;;;13.98;;
29092;SDS011;16167;48.768;14.984;2022-11-15T15:16:27;25.40;;;14.95;;
29092;SDS011;16167;48.768;14.984;2022-11-15T15:18:55;22.92;;;13.73;;
29092;SDS011;16167;48.768;14.984;2022-11-15T15:21:24;24.85;;;14.27;;
29092;SDS011;16167;48.768;14.984;2022-11-15T15:24:00;21.60;;;12.57;;
29092;SDS011;16167;48.768;14.984;2022-11-15T15:26:30;19.95;;;12.63;;
29092;SDS011;16167;48.768;14.984;2022-11-15T15:29:01;18.95;;;12.68;;
29092;SDS011;16167;48.768;14.984;2022-11-15T15:31:29;21.08;;;12.50;;
29092;SDS011;16167;48.768;14.984;2022-11-15T15:33:58;19.83;;;12.63;;
29092;SDS011;16167;48.768;14.984;2022-11-15T15:36:27;19.92;;;12.63;;
29092;SDS011;16167;48.768;14.984;2022-11-15T15:38:55;18.73;;;11.63;;
29092;SDS011;16167;48.768;14.984;2022-11-15T15:41:24;22.05;;;13.88;;
29092;SDS011;16167;48.768;14.984;2022-11-15T15:46:20;19.77;;;12.40;;
29092;SDS011;16167;48.768;14.984;2022-11-15T15:48:48;19.80;;;13.52;;
29092;SDS011;16167;48.768;14.984;2022-11-15T15:51:16;21.33;;;13.20;;
29092;SDS011;16167;48.768;14.984;2022-11-15T15:56:14;111.10;;;46.00;;
29092;SDS011;16167;48.768;14.984;2022-11-15T15:58:43;51.42;;;27.30;;
29092;SDS011;16167;48.768;14.984;2022-11-15T16:01:11;74.93;;;35.08;;
29092;SDS011;16167;48.768;14.984;2022-11-15T16:03:39;22.90;;;13.73;;
29092;SDS011;16167;48.768;14.984;2022-11-15T16:08:59;17.20;;;11.18;;
29092;SDS011;16167;48.768;14.984;2022-11-15T16:11:41;17.85;;;11.68;;
29092;SDS011;16167;48.768;14.984;2022-11-15T16:14:10;20.63;;;13.48;;
29092;SDS011;16167;48.768;14.984;2022-11-15T16:16:39;24.85;;;14.93;;
29092;SDS011;16167;48.768;14.984;2022-11-15T16:19:07;19.83;;;12.25;;
29092;SDS011;16167;48.768;14.984;2022-11-15T16:21:37;20.33;;;12.40;;
29092;SDS011;16167;48.768;14.984;2022-11-15T16:24:05;19.83;;;11.45;;
29092;SDS011;16167;48.768;14.984;2022-11-15T16:26:33;20.05;;;11.90;;
29092;SDS011;16167;48.768;14.984;2022-11-15T16:29:03;22.88;;;13.48;;
29092;SDS011;16167;48.768;14.984;2022-11-15T16:31:34;23.15;;;14.20;;
29092;SDS011;16167;48.768;14.984;2022-11-15T16:36:30;21.63;;;12.82;;
29092;SDS011;16167;48.768;14.984;2022-11-15T16:39:01;18.98;;;11.82;;
29092;SDS011;16167;48.768;14.984;2022-11-15T16:41:30;18.67;;;11.30;;
29092;SDS011;16167;48.768;14.984;2022-11-15T16:43:58;22.13;;;12.68;;
29092;SDS011;16167;48.768;14.984;2022-11-15T16:46:27;34.40;;;21.42;;
29092;SDS011;16167;48.768;14.984;2022-11-15T16:48:56;50.33;;;26.53;;
29092;SDS011;16167;48.768;14.984;2022-11-15T16:51:25;52.20;;;28.38;;
29092;SDS011;16167;48.768;14.984;2022-11-15T16:53:53;43.83;;;24.27;;
29092;SDS011;16167;48.768;14.984;2022-11-15T16:56:22;30.80;;;17.23;;
29092;SDS011;16167;48.768;14.984;2022-11-15T16:58:52;38.60;;;22.42;;
29092;SDS011;16167;48.768;14.984;2022-11-15T17:01:22;35.17;;;21.77;;
29092;SDS011;16167;48.768;14.984;2022-11-15T17:03:51;59.28;;;34.13;;
29092;SDS011;16167;48.768;14.984;2022-11-15T17:06:21;29.92;;;16.85;;
29092;SDS011;16167;48.768;14.984;2022-11-15T17:08:50;37.63;;;21.38;;
29092;SDS011;16167;48.768;14.984;2022-11-15T17:11:19;41.83;;;23.63;;
29092;SDS011;16167;48.768;14.984;2022-11-15T17:13:48;43.17;;;25.70;;
29092;SDS011;16167;48.768;14.984;2022-11-15T17:16:17;38.13;;;21.55;;
29092;SDS011;16167;48.768;14.984;2022-11-15T17:18:49;28.87;;;14.97;;
29092;SDS011;16167;48.768;14.984;2022-11-15T17:21:18;22.65;;;13.20;;
29092;SDS011;16167;48.768;14.984;2022-11-15T17:23:49;27.45;;;14.55;;
29092;SDS011;16167;48.768;14.984;2022-11-15T17:26:19;27.10;;;14.93;;
29092;SDS011;16167;48.768;14.984;2022-11-15T17:28:58;26.60;;;14.52;;
29092;SDS011;16167;48.768;14.984;2022-11-15T17:31:27;28.92;;;15.73;;
29092;SDS011;16167;48.768;14.984;2022-11-15T17:33:59;28.13;;;14.57;;
29092;SDS011;16167;48.768;14.984;2022-11-15T17:36:29;29.42;;;16.63;;
29092;SDS011;16167;48.768;14.984;2022-11-15T17:38:57;27.38;;;16.02;;
29092;SDS011;16167;48.768;14.984;2022-11-15T17:41:25;26.55;;;15.18;;
29092;SDS011;16167;48.768;14.984;2022-11-15T17:43:54;32.88;;;21.33;;
29092;SDS011;16167;48.768;14.984;2022-11-15T17:46:24;24.85;;;15.70;;
29092;SDS011;16167;48.768;14.984;2022-11-15T17:48:53;28.10;;;15.15;;
29092;SDS011;16167;48.768;14.984;2022-11-15T17:51:22;24.48;;;13.90;;
29092;SDS011;16167;48.768;14.984;2022-11-15T17:53:52;37.58;;;20.95;;
29092;SDS011;16167;48.768;14.984;2022-11-15T17:56:22;31.30;;;17.50;;
29092;SDS011;16167;48.768;14.984;2022-11-15T17:58:52;31.58;;;14.70;;
29092;SDS011;16167;48.768;14.984;2022-11-15T18:01:22;29.30;;;15.85;;
29092;SDS011;16167;48.768;14.984;2022-11-15T18:03:51;31.45;;;17.63;;
29092;SDS011;16167;48.768;14.984;2022-11-15T18:06:21;35.88;;;18.73;;
29092;SDS011;16167;48.768;14.984;2022-11-15T18:08:52;31.17;;;18.13;;
29092;SDS011;16167;48.768;14.984;2022-11-15T18:11:22;32.38;;;19.70;;
29092;SDS011;16167;48.768;14.984;2022-11-15T18:13:52;37.28;;;19.80;;
29092;SDS011;16167;48.768;14.984;2022-11-15T18:16:22;30.52;;;16.63;;
29092;SDS011;16167;48.768;14.984;2022-11-15T18:18:52;32.42;;;17.80;;
29092;SDS011;16167;48.768;14.984;2022-11-15T18:21:21;29.70;;;15.38;;
29092;SDS011;16167;48.768;14.984;2022-11-15T18:23:53;28.27;;;15.88;;